Terminal Aerodrome Forecast
Issued by NWS

Home | Current Version | Previous Version | Text Only | Print | Product List | Glossary On
Versions: 1 2 3 4 5 6 7 8 9 10 11 12 13 14 15 16 17 18 19 20 21 22
000
FTUS43 KGRB 241724
TAFATW
TAF
KATW 241724Z 2418/2518 11009KT P6SM BKN020 BKN050
      TEMPO 2418/2422 SCT020 BKN050
     FM242200 11008KT P6SM FEW025 SCT050
     FM250100 11005KT P6SM SCT035 BKN200
     FM250800 14007KT P6SM BKN035
     FM251500 15011KT P6SM VCSH SCT015 OVC030 PROB30 2515/2518 5SM
      -SHRA BR SCT007 OVC015=

USA.gov is the U.S. government's official web portal to all federal, state and local government web resources and services.